In Rescue
 
Open Full Screen Window  High Contrast Mode
Wind Gusting 15 knots
11
October 25, 2021 4:08 PM CDT
Weather Information
Wind Direction
  160 °
Wind Speed
  11 kt (13 mph)
Wind Gust
  15 kt (17 mph)
Altimeter
30.06 in
Visibility
10 SM
Temperature
11° C
52° F
Dewpoint
03° C
37° F
Humidity
58%
1hr Rain Fall
00.00 in.
24hr Rain Fall
00.00 in.
Sky Condition
Clear
VFR

METAR KPQN 252108Z AUTO 16011G15KT 10SM CLR 11/03 A3006 RMK AO2

FAA Disclaimer: The data displayed is for advisory purposes only and is not to be used for flight planning or operations.